Time;durP1;ratioP1;P1;durP2;ratioP2;P2;SDS_P1;SDS_P2;PMS_P1;PMS_P2;Temp;Humidity;BMP_temperature;BMP_pressure;BME280_temperature;BME280_humidity;BME280_pressure;Samples;Min_cycle;Max_cycle;Signal;HPM_P1;HPM_P2
2022/03/16 00:00:57;;;;;;;6.03;5.43;;;;;;;6.17;79.95;99343.09;4109690;28;20217;-85
2022/03/16 00:02:58;;;;;;;8.20;5.45;;;;;;;6.18;79.95;99340.19;4124877;28;20214;-86
2022/03/16 00:05:00;;;;;;;7.88;7.10;;;;;;;6.21;79.26;99344.34;4113197;28;20211;-86
2022/03/16 00:07:02;;;;;;;7.40;6.65;;;;;;;6.13;79.64;99344.53;4107141;28;20699;-86
2022/03/16 00:09:04;;;;;;;5.22;4.72;;;;;;;6.11;79.88;99343.91;4105485;28;20796;-87
2022/03/16 00:11:06;;;;;;;6.55;5.97;;;;;;;6.09;80.03;99343.28;4123977;28;20244;-86
2022/03/16 00:13:07;;;;;;;6.25;5.68;;;;;;;6.09;79.74;99351.44;4112591;28;20211;-86
2022/03/16 00:15:09;;;;;;;5.38;4.90;;;;;;;6.11;79.67;99346.63;4097512;28;20295;-86
2022/03/16 00:17:11;;;;;;;5.13;4.72;;;;;;;6.10;79.87;99355.81;4125574;28;20237;-85
2022/03/16 00:19:13;;;;;;;6.43;5.82;;;;;;;6.11;80.16;99355.63;4123094;28;20206;-86
2022/03/16 00:21:15;;;;;;;5.97;4.95;;;;;;;6.08;79.69;99338.91;4105989;28;20572;-85
2022/03/16 00:23:19;;;;;;;6.55;5.95;;;;;;;6.10;80.00;99347.69;4110249;28;20215;-86
2022/03/16 00:25:30;;;;;;;5.65;5.15;;;;;;;6.10;79.93;99347.69;4121251;28;20214;-85
2022/03/16 00:27:32;;;;;;;5.78;5.25;;;;;;;6.18;79.85;99350.22;4137837;28;20298;-86
2022/03/16 00:29:33;;;;;;;6.45;5.82;;;;;;;6.10;79.98;99344.97;4118663;28;20292;-85
2022/03/16 00:31:37;;;;;;;6.90;6.30;;;;;;;6.14;79.46;99354.38;4103923;28;21324;-86
2022/03/16 00:33:39;;;;;;;4.55;4.15;;;;;;;6.14;79.98;99349.78;4100899;28;20282;-85
2022/03/16 00:35:54;;;;;;;6.20;5.65;;;;;;;6.05;79.59;99339.28;4117650;28;20241;-85
2022/03/16 00:37:56;;;;;;;6.78;6.18;;;;;;;6.06;80.07;99346.38;4107038;28;20265;-85
2022/03/16 00:39:58;;;;;;;6.57;5.97;;;;;;;6.10;80.06;99353.09;4120842;28;20291;-85
2022/03/16 00:42:11;;;;;;;;;;;;;;;;;;;;;
2022/03/16 00:44:12;;;;;;;6.78;6.13;;;;;;;6.10;79.81;99358.53;4116325;28;20213;-85
2022/03/16 00:46:14;;;;;;;6.70;6.13;;;;;;;6.10;79.12;99347.69;4101792;28;20231;-86
2022/03/16 00:48:17;;;;;;;8.80;7.20;;;;;;;6.03;79.41;99346.81;4095699;28;20221;-85
2022/03/16 00:50:19;;;;;;;7.60;6.95;;;;;;;5.95;79.48;99357.84;4099273;28;20280;-85
2022/03/16 00:52:23;;;;;;;7.10;6.25;;;;;;;5.96;79.38;99356.78;4101050;28;20213;-86
2022/03/16 00:54:24;;;;;;;6.50;5.90;;;;;;;5.97;79.09;99356.56;4099508;28;21706;-86
2022/03/16 00:56:29;;;;;;;7.03;6.05;;;;;;;5.94;79.47;99347.97;4099782;28;20229;-86
2022/03/16 00:58:38;;;;;;;6.68;6.07;;;;;;;5.93;79.63;99346.31;4098077;28;20206;-86
2022/03/16 01:00:47;;;;;;;5.30;4.90;;;;;;;5.97;79.11;99342.16;4114035;28;20199;-86
2022/03/16 01:02:49;;;;;;;7.10;5.93;;;;;;;5.98;79.21;99341.97;4093299;28;20320;-85
2022/03/16 01:04:58;;;;;;;8.02;7.40;;;;;;;5.94;79.50;99345.28;4104088;28;20234;-86
2022/03/16 01:06:59;;;;;;;5.82;4.93;;;;;;;5.91;79.26;99343.81;4115031;28;20229;-87
2022/03/16 01:09:02;;;;;;;6.80;6.20;;;;;;;5.90;79.36;99341.28;4119790;28;20203;-86
2022/03/16 01:11:04;;;;;;;9.13;7.90;;;;;;;5.92;79.43;99334.63;4104416;28;20224;-87
2022/03/16 01:13:06;;;;;;;6.88;6.28;;;;;;;5.91;79.45;99340.25;4088733;28;20203;-86
2022/03/16 01:15:08;;;;;;;7.78;7.05;;;;;;;5.91;79.26;99338.38;4115258;28;20218;-86
2022/03/16 01:17:09;;;;;;;7.43;6.78;;;;;;;5.98;79.36;99344.69;4105470;28;20322;-86
2022/03/16 01:19:29;;;;;;;7.43;6.78;;;;;;;5.91;79.33;99338.38;4120852;28;20715;-86
2022/03/16 01:21:32;;;;;;;9.13;6.38;;;;;;;5.90;79.48;99335.88;4103498;28;20896;-86
2022/03/16 01:23:35;;;;;;;6.20;5.60;;;;;;;5.90;79.66;99346.72;4107973;28;20239;-86
2022/03/16 01:25:36;;;;;;;7.55;6.85;;;;;;;5.85;79.81;99344.63;4092181;28;20299;-86
2022/03/16 01:27:42;;;;;;;6.88;6.20;;;;;;;5.89;79.61;99339.63;4115752;28;20210;-86
2022/03/16 01:29:43;;;;;;;6.47;5.85;;;;;;;5.91;79.90;99337.53;4116858;28;20202;-86
2022/03/16 01:31:45;;;;;;;6.63;6.03;;;;;;;5.85;79.70;99339.19;4117921;28;20202;-86
2022/03/16 01:33:47;;;;;;;8.77;6.60;;;;;;;5.85;80.07;99343.75;4087237;28;20670;-87
2022/03/16 01:35:48;;;;;;;5.75;5.25;;;;;;;5.86;79.92;99337.28;4117793;28;20243;-87
2022/03/16 01:37:52;;;;;;;6.70;6.10;;;;;;;5.85;80.02;99338.34;4118592;28;20214;-87
2022/03/16 01:39:54;;;;;;;6.82;5.88;;;;;;;5.83;79.87;99337.69;4105610;28;20234;-86
2022/03/16 01:41:55;;;;;;;7.03;6.35;;;;;;;5.81;79.80;99337.03;4088602;28;20211;-86
2022/03/16 01:44:04;;;;;;;7.68;6.88;;;;;;;5.74;80.15;99333.41;4108391;28;20241;-86
2022/03/16 01:46:20;;;;;;;8.20;7.03;;;;;;;5.74;80.72;99336.13;4105779;28;20223;-86
2022/03/16 01:48:22;;;;;;;6.15;5.57;;;;;;;5.75;80.22;99343.28;4104814;28;20210;-86
2022/03/16 01:50:23;;;;;;;6.85;5.80;;;;;;;5.73;80.26;99342.59;4103940;28;20254;-85
2022/03/16 01:52:27;;;;;;;6.30;5.72;;;;;;;5.73;80.22;99345.31;4102884;28;20931;-85
2022/03/16 01:54:28;;;;;;;6.78;5.60;;;;;;;5.70;80.36;99330.25;4085699;28;20218;-86
2022/03/16 01:56:30;;;;;;;6.22;5.60;;;;;;;5.69;80.04;99338.63;4106704;28;20250;-85
2022/03/16 01:58:32;;;;;;;6.20;5.63;;;;;;;5.67;80.10;99335.25;4096887;28;20261;-87
2022/03/16 02:00:36;;;;;;;7.15;6.55;;;;;;;5.67;79.87;99335.25;4106961;28;20199;-87
2022/03/16 02:02:38;;;;;;;6.40;5.88;;;;;;;5.66;79.94;99336.28;4116976;28;20217;-88
2022/03/16 02:04:45;;;;;;;6.80;6.20;;;;;;;5.65;80.23;99337.34;4138368;28;20868;-85
2022/03/16 02:06:47;;;;;;;6.95;6.28;;;;;;;5.63;80.36;99328.56;4110786;28;20227;-86
2022/03/16 02:08:51;;;;;;;6.97;6.28;;;;;;;5.69;79.87;99338.63;4109178;28;20231;-87
2022/03/16 02:10:53;;;;;;;6.80;6.03;;;;;;;5.69;80.15;99338.63;4121091;28;20238;-87
2022/03/16 02:12:55;;;;;;;6.72;6.20;;;;;;;5.64;79.99;99341.09;4108224;28;20294;-86
2022/03/16 02:14:58;;;;;;;7.10;5.93;;;;;;;5.69;80.11;99336.75;4124169;28;20596;-86
2022/03/16 02:17:00;;;;;;;6.82;6.22;;;;;;;5.60;80.68;99337.94;4105856;28;20337;-86
2022/03/16 02:19:04;;;;;;;7.05;6.38;;;;;;;5.56;80.65;99338.53;4123873;28;20190;-85
2022/03/16 02:21:09;;;;;;;7.53;6.75;;;;;;;5.57;80.68;99338.31;4125569;28;20283;-86
2022/03/16 02:23:11;;;;;;;7.32;6.38;;;;;;;5.56;80.72;99328.50;4112515;28;20274;-85
2022/03/16 02:25:12;;;;;;;6.07;5.47;;;;;;;5.45;81.14;99330.94;4121744;28;20221;-85
2022/03/16 02:27:14;;;;;;;8.63;6.72;;;;;;;5.44;81.87;99329.25;4120681;28;20704;-85
2022/03/16 02:29:19;;;;;;;7.18;6.40;;;;;;;5.35;81.96;99330.47;4106905;28;20215;-87
2022/03/16 02:31:21;;;;;;;7.10;6.35;;;;;;;5.35;82.14;99330.47;4123366;28;20223;-85
2022/03/16 02:33:30;;;;;;;9.13;7.80;;;;;;;5.39;82.37;99331.72;4101628;28;20982;-85
2022/03/16 02:35:32;;;;;;;7.80;6.88;;;;;;;5.35;82.91;99335.88;4139516;28;20205;-86
2022/03/16 02:37:38;;;;;;;7.93;6.30;;;;;;;5.35;82.55;99328.56;4121493;28;20240;-85
2022/03/16 02:39:40;;;;;;;8.65;7.78;;;;;;;5.38;82.50;99330.91;4106221;28;20214;-86
2022/03/16 02:41:46;;;;;;;8.88;7.90;;;;;;;5.44;81.89;99326.53;4110292;28;20209;-85
2022/03/16 02:43:48;;;;;;;7.93;6.90;;;;;;;5.47;82.18;99324.28;4096092;28;20488;-85
2022/03/16 02:45:49;;;;;;;7.88;7.13;;;;;;;5.49;82.12;99324.09;4111617;28;20233;-86
2022/03/16 02:47:51;;;;;;;8.77;8.00;;;;;;;5.51;82.04;99313.84;4107369;28;20198;-86
2022/03/16 02:49:52;;;;;;;8.10;7.35;;;;;;;5.44;82.19;99318.41;4117475;28;20229;-87
2022/03/16 02:51:54;;;;;;;7.68;6.97;;;;;;;5.48;82.42;99331.38;4088333;28;20773;-86
2022/03/16 02:53:55;;;;;;;8.00;7.28;;;;;;;5.51;81.92;99327.44;4123244;28;20724;-86
2022/03/16 02:55:57;;;;;;;7.38;6.68;;;;;;;5.43;82.02;99333.00;4103263;28;20611;-86
2022/03/16 02:57:59;;;;;;;6.93;6.30;;;;;;;5.42;82.15;99331.34;4104091;28;22850;-87
2022/03/16 03:00:00;;;;;;;8.02;6.85;;;;;;;5.40;82.48;99333.41;4090433;28;20204;-86
2022/03/16 03:02:02;;;;;;;6.97;6.38;;;;;;;5.33;82.80;99343.34;4101997;28;20265;-86
2022/03/16 03:04:04;;;;;;;9.93;8.52;;;;;;;5.35;82.61;99330.47;4107767;28;20215;-86
2022/03/16 03:06:06;;;;;;;9.25;8.35;;;;;;;5.36;82.31;99348.41;4103059;28;20227;-84
2022/03/16 03:08:07;;;;;;;8.35;7.55;;;;;;;5.43;82.06;99333.00;4107873;28;20241;-86
2022/03/16 03:10:09;;;;;;;8.35;7.43;;;;;;;5.42;82.32;99348.44;4105870;28;20218;-86
2022/03/16 03:12:10;;;;;;;8.38;7.57;;;;;;;5.35;82.58;99347.56;4103905;28;20225;-86
2022/03/16 03:14:12;;;;;;;9.38;8.48;;;;;;;5.42;82.44;99353.06;4107298;28;20211;-87
2022/03/16 03:16:13;;;;;;;7.40;5.88;;;;;;;5.45;82.21;99342.66;4134855;28;20229;-86
2022/03/16 03:18:15;;;;;;;10.35;9.45;;;;;;;5.45;82.22;99352.66;4103952;28;20231;-87
2022/03/16 03:20:17;;;;;;;10.23;9.23;;;;;;;5.47;82.01;99350.56;4124398;28;20206;-87
2022/03/16 03:22:18;;;;;;;7.80;7.00;;;;;;;5.47;81.94;99350.56;4106993;28;20716;-86
2022/03/16 03:24:20;;;;;;;8.60;7.75;;;;;;;5.37;82.33;99355.50;4108312;28;20289;-88
2022/03/16 03:26:25;;;;;;;7.95;7.18;;;;;;;5.35;82.39;99357.59;4106553;28;20234;-86
2022/03/16 03:28:26;;;;;;;10.90;9.90;;;;;;;5.32;82.32;99355.25;4105665;28;20210;-87
2022/03/16 03:30:28;;;;;;;9.35;8.43;;;;;;;5.32;82.33;99349.81;4105116;28;20254;-87
2022/03/16 03:32:29;;;;;;;9.23;8.43;;;;;;;5.35;82.50;99352.97;4124831;28;20213;-87
2022/03/16 03:34:31;;;;;;;10.38;9.00;;;;;;;5.38;82.27;99358.03;4116022;28;20214;-86
2022/03/16 03:36:33;;;;;;;10.30;7.78;;;;;;;5.39;81.72;99353.44;4101994;28;20224;-87
2022/03/16 03:38:35;;;;;;;9.55;8.10;;;;;;;5.40;81.80;99355.09;4122624;28;20299;-86
2022/03/16 03:40:36;;;;;;;8.57;7.88;;;;;;;5.29;82.59;99352.94;4104678;28;20209;-86
2022/03/16 03:42:38;;;;;;;9.80;8.88;;;;;;;5.32;82.02;99355.25;4119692;28;20206;-86
2022/03/16 03:44:39;;;;;;;9.23;8.43;;;;;;;5.31;82.04;99356.28;4105349;28;20226;-86
2022/03/16 03:46:41;;;;;;;10.90;8.25;;;;;;;5.31;81.90;99356.28;4103250;28;20246;-86
2022/03/16 03:48:43;;;;;;;10.10;9.05;;;;;;;5.25;82.05;99357.06;4118201;28;20234;-86
2022/03/16 03:50:44;;;;;;;11.35;9.23;;;;;;;5.35;82.13;99363.03;4089983;28;20219;-86
2022/03/16 03:52:46;;;;;;;9.40;8.60;;;;;;;5.35;81.92;99357.59;4112716;28;20211;-86
2022/03/16 03:54:47;;;;;;;12.18;9.48;;;;;;;5.35;81.81;99363.03;4105483;28;20214;-85
2022/03/16 03:56:49;;;;;;;11.73;10.63;;;;;;;5.36;82.05;99370.13;4092379;28;20235;-85
2022/03/16 03:58:52;;;;;;;13.77;10.57;;;;;;;5.32;81.76;99363.41;4123441;28;20219;-86
2022/03/16 04:00:54;;;;;;;11.73;9.45;;;;;;;5.27;81.99;99366.69;4120892;28;20206;-88
2022/03/16 04:02:56;;;;;;;12.05;10.95;;;;;;;5.31;82.12;99369.84;4091797;28;20211;-86
2022/03/16 04:05:12;;;;;;;11.35;8.82;;;;;;;5.33;82.14;99365.06;4108736;28;20207;-86
2022/03/16 04:07:14;;;;;;;10.75;9.68;;;;;;;5.35;82.27;99365.72;4124735;28;20250;-86
2022/03/16 04:09:15;;;;;;;11.00;10.00;;;;;;;5.39;82.06;99358.84;4108509;28;20219;-86
2022/03/16 04:11:17;;;;;;;10.50;9.40;;;;;;;5.41;81.81;99364.91;4111911;28;20249;-86
2022/03/16 04:13:18;;;;;;;12.82;10.50;;;;;;;5.35;81.82;99368.44;4127861;28;20206;-88
2022/03/16 04:15:20;;;;;;;13.52;11.95;;;;;;;5.41;81.92;99367.63;4107053;28;20215;-86
2022/03/16 04:17:21;;;;;;;12.40;10.15;;;;;;;5.39;81.86;99369.72;4111302;28;20929;-85
2022/03/16 04:19:24;;;;;;;12.93;11.60;;;;;;;5.31;81.93;99361.72;4099363;28;20931;-87
2022/03/16 04:21:26;;;;;;;13.00;11.82;;;;;;;5.32;82.19;99363.41;4114064;28;20646;-86
2022/03/16 04:23:27;;;;;;;15.65;12.30;;;;;;;5.39;82.17;99369.72;4110030;28;20362;-86
2022/03/16 04:25:29;;;;;;;13.85;12.05;;;;;;;5.44;81.67;99367.25;4107120;28;20207;-86
2022/03/16 04:27:30;;;;;;;12.20;9.85;;;;;;;5.37;82.08;99366.38;4108404;28;20250;-88
2022/03/16 04:29:32;;;;;;;14.10;12.55;;;;;;;5.34;82.10;99364.03;4122481;28;20214;-87
2022/03/16 04:31:33;;;;;;;13.32;11.90;;;;;;;5.33;82.28;99370.50;4110562;28;20615;-86
2022/03/16 04:33:37;;;;;;;12.95;11.77;;;;;;;5.29;82.28;99369.22;4094134;28;20211;-87
2022/03/16 04:35:39;;;;;;;17.48;10.98;;;;;;;5.32;81.93;99366.09;4109889;28;20206;-86
2022/03/16 04:37:40;;;;;;;14.45;13.20;;;;;;;5.31;82.16;99362.56;4107140;28;20215;-86
2022/03/16 04:39:42;;;;;;;18.17;12.50;;;;;;;5.26;82.38;99364.16;4108770;28;20214;-86
2022/03/16 04:41:47;;;;;;;12.35;10.75;;;;;;;5.28;82.38;99367.53;4100561;28;20226;-85
2022/03/16 04:43:48;;;;;;;13.38;11.98;;;;;;;5.30;82.37;99365.47;4108778;28;20222;-86
2022/03/16 04:45:50;;;;;;;15.27;13.68;;;;;;;5.30;82.03;99363.56;4122294;28;20796;-87
2022/03/16 04:47:52;;;;;;;12.68;11.50;;;;;;;5.27;82.59;99361.28;4125451;28;20210;-86
2022/03/16 04:49:53;;;;;;;13.75;12.18;;;;;;;5.28;82.09;99356.66;4099353;28;20211;-85
2022/03/16 04:51:55;;;;;;;11.77;10.57;;;;;;;5.28;82.40;99362.09;4091254;28;20223;-86
2022/03/16 04:53:56;;;;;;;11.02;9.48;;;;;;;5.24;82.77;99360.81;4100141;28;20207;-85
2022/03/16 04:55:58;;;;;;;12.48;11.30;;;;;;;5.24;82.28;99358.13;4121824;28;21684;-86
2022/03/16 04:58:00;;;;;;;14.90;11.15;;;;;;;5.29;82.41;99359.19;4107766;28;20222;-86
2022/03/16 05:00:03;;;;;;;10.77;9.73;;;;;;;5.32;82.04;99352.53;4096102;28;20206;-86
2022/03/16 05:02:06;;;;;;;18.80;11.07;;;;;;;5.33;81.94;99365.06;4122170;28;20206;-86
2022/03/16 05:04:07;;;;;;;10.60;9.60;;;;;;;5.31;81.81;99356.28;4110406;28;20210;-86
2022/03/16 05:06:09;;;;;;;13.30;11.98;;;;;;;5.28;82.18;99362.94;4109066;28;20309;-86
2022/03/16 05:08:10;;;;;;;11.57;10.40;;;;;;;5.19;82.20;99357.84;4091451;28;20224;-86
2022/03/16 05:10:13;;;;;;;14.10;12.00;;;;;;;5.22;82.23;99358.31;4106927;28;20226;-85
2022/03/16 05:12:14;;;;;;;13.95;10.90;;;;;;;5.33;81.61;99359.63;4104559;28;20275;-86
2022/03/16 05:14:17;;;;;;;12.60;11.18;;;;;;;5.27;82.04;99360.41;4110329;28;20291;-85
2022/03/16 05:16:18;;;;;;;11.77;10.57;;;;;;;5.26;81.91;99361.47;4096136;28;20231;-86
2022/03/16 05:18:20;;;;;;;12.13;10.77;;;;;;;5.17;81.90;99365.34;4093985;28;20215;-84
2022/03/16 05:20:22;;;;;;;12.02;9.10;;;;;;;5.19;82.15;99366.00;4094094;28;20273;-85
2022/03/16 05:22:23;;;;;;;13.68;10.25;;;;;;;5.26;81.89;99369.59;4111527;28;20329;-85
2022/03/16 05:24:26;;;;;;;13.00;11.70;;;;;;;5.28;81.89;99367.53;4114134;28;20215;-86
2022/03/16 05:26:28;;;;;;;13.85;11.55;;;;;;;5.29;81.95;99371.94;4108407;28;20234;-87
2022/03/16 05:28:30;;;;;;;12.43;11.18;;;;;;;5.27;81.91;99376.69;4111495;28;20293;-85
2022/03/16 05:30:32;;;;;;;14.40;12.40;;;;;;;5.24;82.03;99382.53;4111928;28;20298;-86
2022/03/16 05:32:40;;;;;;;10.65;9.57;;;;;;;5.34;82.17;99383.03;4107127;28;20313;-85
2022/03/16 05:34:44;;;;;;;12.23;10.93;;;;;;;5.31;82.00;99378.84;4123562;28;20213;-85
2022/03/16 05:36:46;;;;;;;12.77;9.98;;;;;;;5.26;81.66;99388.59;4123323;28;20237;-86
2022/03/16 05:38:47;;;;;;;11.23;10.20;;;;;;;5.31;81.89;99388.84;4118665;28;20916;-87
2022/03/16 05:40:49;;;;;;;12.30;10.98;;;;;;;5.26;81.70;99388.59;4107452;28;20206;-87
2022/03/16 05:42:51;;;;;;;11.90;10.63;;;;;;;5.30;81.47;99381.75;4107624;28;20678;-87
2022/03/16 05:44:55;;;;;;;14.00;11.55;;;;;;;5.33;81.48;99387.63;4109399;28;20262;-87
2022/03/16 05:46:57;;;;;;;12.43;11.05;;;;;;;5.24;81.34;99377.94;4105787;28;20246;-88
2022/03/16 05:49:00;;;;;;;10.50;8.77;;;;;;;5.18;82.25;99380.59;4107984;28;20246;-87
2022/03/16 05:51:02;;;;;;;16.50;11.15;;;;;;;5.27;81.93;99382.13;4106988;28;20615;-87
2022/03/16 05:53:03;;;;;;;13.35;12.10;;;;;;;5.21;81.77;99385.63;4106749;28;20215;-87
2022/03/16 05:55:07;;;;;;;12.15;10.88;;;;;;;5.23;81.90;99383.56;4110531;28;20211;-87
2022/03/16 05:57:11;;;;;;;14.63;10.50;;;;;;;5.20;82.30;99384.78;4091694;28;20222;-87
2022/03/16 05:59:12;;;;;;;14.73;11.60;;;;;;;5.21;82.67;99388.31;4106174;28;20210;-86
2022/03/16 06:01:14;;;;;;;10.98;9.93;;;;;;;5.30;82.01;99377.16;4091927;28;20203;-85
2022/03/16 06:03:15;;;;;;;15.13;10.57;;;;;;;5.32;81.62;99382.38;4093040;28;20207;-84
2022/03/16 06:05:17;;;;;;;13.40;11.25;;;;;;;5.27;81.97;99379.41;4121587;28;20198;-87
2022/03/16 06:07:19;;;;;;;12.20;11.02;;;;;;;5.29;81.79;99380.06;4090977;28;20263;-86
2022/03/16 06:09:23;;;;;;;12.68;11.30;;;;;;;5.35;81.60;99385.53;4122121;28;20369;-86
2022/03/16 06:11:24;;;;;;;14.93;12.93;;;;;;;5.31;81.61;99372.56;4092021;28;20733;-87
2022/03/16 06:13:26;;;;;;;13.35;12.07;;;;;;;5.28;81.75;99378.38;4094415;28;20215;-86
2022/03/16 06:15:30;;;;;;;11.55;10.38;;;;;;;5.17;82.09;99376.22;4107493;28;20206;-86
2022/03/16 06:17:31;;;;;;;11.90;10.57;;;;;;;5.23;82.05;99375.44;4105056;28;20298;-87
2022/03/16 06:19:33;;;;;;;14.63;13.13;;;;;;;5.21;82.25;99377.47;4108854;28;20699;-88
2022/03/16 06:21:35;;;;;;;16.08;11.00;;;;;;;5.20;82.31;99383.94;4123320;28;20298;-86
2022/03/16 06:23:36;;;;;;;12.82;11.52;;;;;;;5.17;81.75;99379.75;4096753;28;20298;-87
2022/03/16 06:25:38;;;;;;;14.32;12.05;;;;;;;5.19;82.15;99385.84;4097106;28;20235;-86
2022/03/16 06:27:42;;;;;;;11.95;9.75;;;;;;;5.25;82.25;99385.06;4112373;28;20237;-87
2022/03/16 06:29:44;;;;;;;11.75;10.65;;;;;;;5.21;82.13;99388.31;4093737;28;20203;-87
2022/03/16 06:31:45;;;;;;;16.67;11.73;;;;;;;5.22;81.90;99390.84;4094855;28;20250;-86
2022/03/16 06:33:47;;;;;;;14.57;11.93;;;;;;;5.28;81.94;99394.66;4102331;28;20207;-86
2022/03/16 06:35:49;;;;;;;21.60;13.57;;;;;;;5.34;81.82;99402.00;4103858;28;20756;-87
2022/03/16 06:37:51;;;;;;;12.82;10.05;;;;;;;5.34;81.69;99399.31;4102665;28;20785;-86
2022/03/16 06:39:52;;;;;;;14.80;11.55;;;;;;;5.33;82.25;99403.06;4095483;28;20211;-86
2022/03/16 06:42:03;;;;;;;17.83;11.80;;;;;;;5.36;82.04;99402.69;4108765;28;20209;-87
2022/03/16 06:44:05;;;;;;;14.60;10.98;;;;;;;5.30;81.84;99403.47;4092186;28;20226;-87
2022/03/16 06:46:09;;;;;;;13.27;11.20;;;;;;;5.27;82.12;99409.25;4109445;28;20230;-85
2022/03/16 06:48:11;;;;;;;12.57;10.80;;;;;;;5.25;82.61;99412.19;4105537;28;20249;-85
2022/03/16 06:50:13;;;;;;;12.68;9.88;;;;;;;5.34;81.90;99404.72;4105894;28;20315;-86
2022/03/16 06:52:17;;;;;;;16.13;12.57;;;;;;;5.42;81.65;99407.34;4094616;28;20669;-86
2022/03/16 06:54:18;;;;;;;14.25;11.20;;;;;;;5.46;81.71;99403.16;4103855;28;20233;-85
2022/03/16 06:56:22;;;;;;;10.90;9.35;;;;;;;5.44;81.69;99413.38;4089940;28;20235;-87
2022/03/16 06:58:24;;;;;;;11.95;10.50;;;;;;;5.36;81.83;99414.34;4086597;28;20272;-86
2022/03/16 07:00:25;;;;;;;12.98;11.57;;;;;;;5.41;81.32;99420.03;4109398;28;22763;-87
2022/03/16 07:02:27;;;;;;;14.75;11.55;;;;;;;5.47;81.53;99427.41;4113207;28;20222;-87
2022/03/16 07:04:29;;;;;;;18.50;12.57;;;;;;;5.41;81.71;99430.91;4109523;28;20206;-86
2022/03/16 07:06:31;;;;;;;16.50;12.40;;;;;;;5.45;81.77;99437.63;4103722;28;20754;-87
2022/03/16 07:08:32;;;;;;;13.60;11.57;;;;;;;5.40;81.63;99431.94;4120893;28;20246;-87
2022/03/16 07:10:35;;;;;;;13.45;12.05;;;;;;;5.44;81.68;99432.38;4106976;28;20295;-86
2022/03/16 07:12:43;;;;;;;11.80;9.75;;;;;;;5.47;81.81;99432.84;4096293;28;20326;-86
2022/03/16 07:14:44;;;;;;;13.15;11.13;;;;;;;5.50;81.65;99431.63;4103347;28;20213;-87
2022/03/16 07:16:46;;;;;;;11.57;9.82;;;;;;;5.46;81.64;99427.59;4102132;28;20233;-86
2022/03/16 07:18:48;;;;;;;12.80;11.50;;;;;;;5.41;81.89;99427.34;4097989;28;20216;-85
2022/03/16 07:20:50;;;;;;;14.32;11.50;;;;;;;5.45;81.81;99425.94;4113350;28;20214;-85
2022/03/16 07:23:06;;;;;;;12.55;11.18;;;;;;;5.57;81.50;99427.06;4123305;28;20719;-85
2022/03/16 07:25:10;;;;;;;11.98;10.85;;;;;;;5.55;81.58;99429.16;4109467;28;20198;-85
2022/03/16 07:27:13;;;;;;;12.45;10.25;;;;;;;5.63;81.15;99437.16;4110255;28;20290;-85
2022/03/16 07:29:15;;;;;;;13.07;9.80;;;;;;;5.61;81.38;99433.78;4107117;28;20577;-84
2022/03/16 07:31:17;;;;;;;13.10;10.25;;;;;;;5.65;81.15;99429.66;4105854;28;20211;-84
2022/03/16 07:33:18;;;;;;;15.07;11.43;;;;;;;5.62;81.37;99435.47;4097037;29;20235;-83
2022/03/16 07:35:26;;;;;;;14.95;9.68;;;;;;;5.71;81.45;99439.72;4108555;28;20214;-86
2022/03/16 07:37:28;;;;;;;12.40;8.77;;;;;;;5.73;81.06;99432.22;4091788;28;20235;-85
2022/03/16 07:39:29;;;;;;;11.20;10.02;;;;;;;5.79;81.28;99442.28;4106504;28;20682;-84
2022/03/16 07:41:31;;;;;;;11.40;10.30;;;;;;;5.72;81.40;99439.53;4127167;28;20206;-86
2022/03/16 07:43:32;;;;;;;10.77;9.70;;;;;;;5.80;81.45;99438.56;4112099;28;20206;-86
2022/03/16 07:45:35;;;;;;;11.00;9.98;;;;;;;5.82;81.05;99436.50;4110843;28;20218;-84
2022/03/16 07:47:36;;;;;;;10.38;9.30;;;;;;;5.80;81.01;99438.56;4110132;28;20254;-82
2022/03/16 07:49:40;;;;;;;16.35;12.30;;;;;;;5.86;80.93;99432.34;4126558;28;20313;-83
2022/03/16 07:51:41;;;;;;;13.27;10.55;;;;;;;5.87;80.52;99428.59;4108983;28;20221;-84
2022/03/16 07:53:43;;;;;;;11.68;9.23;;;;;;;5.87;80.92;99425.88;4113232;28;20207;-84
2022/03/16 07:55:45;;;;;;;11.48;10.48;;;;;;;5.96;80.91;99427.41;4093090;28;20223;-84
2022/03/16 07:57:47;;;;;;;11.77;10.63;;;;;;;5.98;80.96;99422.63;4116227;28;20214;-84
2022/03/16 07:59:49;;;;;;;11.07;10.05;;;;;;;5.97;80.74;99419.03;4116503;28;20709;-85
2022/03/16 08:01:50;;;;;;;14.43;13.13;;;;;;;6.06;80.26;99422.44;4112208;28;20270;-83
2022/03/16 08:03:55;;;;;;;12.27;11.07;;;;;;;6.03;80.65;99422.88;4125428;28;20222;-83
2022/03/16 08:05:56;;;;;;;11.73;10.60;;;;;;;6.13;80.29;99423.34;4122513;28;20241;-84
2022/03/16 08:08:04;;;;;;;13.02;10.82;;;;;;;6.18;80.29;99432.59;4106770;28;20264;-84
2022/03/16 08:10:06;;;;;;;13.75;10.93;;;;;;;6.24;80.28;99426.31;4125305;28;20209;-84
2022/03/16 08:12:08;;;;;;;12.57;11.32;;;;;;;6.26;80.16;99429.69;4094827;28;20215;-85
2022/03/16 08:14:09;;;;;;;10.95;9.98;;;;;;;6.23;79.80;99437.41;4117787;28;20230;-84
2022/03/16 08:16:10;;;;;;;12.13;10.93;;;;;;;6.19;79.87;99427.97;4130075;28;20237;-83
2022/03/16 08:18:16;;;;;;;13.65;11.85;;;;;;;6.32;79.89;99433.47;4127432;28;20301;-83
2022/03/16 08:20:17;;;;;;;11.98;10.75;;;;;;;6.40;79.68;99422.44;4103699;28;20213;-83
2022/03/16 08:22:26;;;;;;;11.93;10.18;;;;;;;6.44;79.23;99426.44;4119480;28;20213;-83
2022/03/16 08:24:28;;;;;;;12.15;11.05;;;;;;;6.43;79.20;99430.22;4113621;28;20221;-84
2022/03/16 08:26:49;;;;;;;11.57;10.38;;;;;;;6.47;79.31;99432.31;4118253;28;20243;-83
2022/03/16 08:28:51;;;;;;;11.90;10.82;;;;;;;6.53;79.65;99422.50;4118836;28;20217;-82
2022/03/16 08:30:53;;;;;;;10.77;9.73;;;;;;;6.63;78.69;99423.81;4111563;28;20313;-85
2022/03/16 08:32:54;;;;;;;11.63;10.43;;;;;;;6.59;79.32;99427.13;4120337;28;20219;-84
2022/03/16 08:34:56;;;;;;;9.07;8.18;;;;;;;6.65;79.34;99429.06;4119352;28;20204;-85
2022/03/16 08:37:00;;;;;;;11.35;10.20;;;;;;;6.65;78.66;99429.91;4104922;28;20236;-84
2022/03/16 08:39:03;;;;;;;13.20;9.20;;;;;;;6.71;79.22;99439.13;4096011;28;20218;-84
2022/03/16 08:41:06;;;;;;;12.75;11.45;;;;;;;6.79;78.08;99436.22;4124116;28;20218;-83
2022/03/16 08:43:08;;;;;;;11.98;10.57;;;;;;;6.87;78.50;99425.16;4109340;28;20207;-83
2022/03/16 08:45:12;;;;;;;10.40;9.38;;;;;;;6.91;78.27;99424.56;4111540;28;20203;-85
2022/03/16 08:47:16;;;;;;;12.00;10.90;;;;;;;6.97;77.91;99425.63;4120079;28;20230;-82
2022/03/16 08:49:21;;;;;;;13.98;10.98;;;;;;;6.92;78.50;99411.78;4100707;28;20223;-84
2022/03/16 08:51:23;;;;;;;11.15;10.18;;;;;;;7.15;78.07;99425.88;4107919;28;20767;-84
2022/03/16 08:53:31;;;;;;;9.25;8.25;;;;;;;7.27;78.17;99413.31;4108857;28;20228;-84
2022/03/16 08:55:33;;;;;;;10.73;9.00;;;;;;;7.37;76.74;99411.03;4113354;28;20252;-84
2022/03/16 08:57:34;;;;;;;10.88;9.85;;;;;;;7.23;76.95;99409.34;4110343;28;20302;-84
2022/03/16 08:59:37;;;;;;;10.70;9.70;;;;;;;7.23;77.48;99417.50;4098024;28;20207;-83
2022/03/16 09:01:39;;;;;;;10.15;9.27;;;;;;;7.25;76.85;99409.97;4112567;28;20206;-83
2022/03/16 09:03:41;;;;;;;9.15;7.93;;;;;;;7.20;77.17;99412.47;4105701;28;20234;-83
2022/03/16 09:05:43;;;;;;;13.55;10.20;;;;;;;7.27;76.95;99407.88;4122731;28;20253;-84
2022/03/16 09:07:48;;;;;;;9.85;8.85;;;;;;;7.37;76.70;99398.25;4092033;28;20273;-83
2022/03/16 09:09:50;;;;;;;10.48;9.40;;;;;;;7.31;76.09;99398.25;4096196;28;20208;-84
2022/03/16 09:11:52;;;;;;;9.75;8.85;;;;;;;7.44;76.55;99401.84;4109628;28;20207;-84
2022/03/16 09:13:54;;;;;;;8.70;7.88;;;;;;;7.37;76.75;99408.31;4134761;28;20339;-83
2022/03/16 09:15:59;;;;;;;9.85;8.82;;;;;;;7.33;76.40;99401.59;4125686;28;20226;-84
2022/03/16 09:18:00;;;;;;;9.77;8.43;;;;;;;7.38;76.33;99412.72;4111990;28;20584;-84
2022/03/16 09:20:06;;;;;;;8.75;7.90;;;;;;;7.50;76.32;99414.59;4131359;28;20584;-84
2022/03/16 09:22:21;;;;;;;8.50;7.75;;;;;;;7.45;75.81;99421.72;4103469;28;20207;-83
2022/03/16 09:24:33;;;;;;;8.73;7.90;;;;;;;7.50;76.28;99414.59;4115677;28;20218;-84
2022/03/16 09:26:36;;;;;;;10.20;9.27;;;;;;;7.58;76.54;99416.28;4118664;28;20229;-84
2022/03/16 09:28:37;;;;;;;13.02;9.48;;;;;;;7.61;75.85;99416.72;4127645;28;20584;-83
2022/03/16 09:30:39;;;;;;;9.10;8.30;;;;;;;7.74;75.59;99415.84;4123140;28;20209;-84
2022/03/16 09:32:41;;;;;;;9.45;8.65;;;;;;;7.64;75.29;99401.84;4104213;28;20281;-83
2022/03/16 09:34:42;;;;;;;7.97;7.18;;;;;;;7.55;76.01;99405.81;4122500;28;20209;-84
2022/03/16 09:36:45;;;;;;;9.07;8.18;;;;;;;7.70;75.88;99403.72;4092738;28;20224;-84
2022/03/16 09:38:47;;;;;;;8.98;7.30;;;;;;;7.76;76.93;99400.16;4133015;28;20314;-82